METAR UND TAF INFORMATION
UUEE 160900Z VRB01MPS CAVOK M12/M14 Q1038 R06R/410351 R06C/410345 NOSIG

 FLUGHAFENKARTE

 RUNWAY INFORMATION
Runway 07L Runway length 11647 ft Runway width 197 ft
Runway elevation 620 ft Runway displaced threshold 0 ft Runway heading 75
Runway 25R Runway length 11647 ft Runway width 197 ft
Runway elevation 622 ft Runway displaced threshold 0 ft Runway heading 255
Runway 07R Runway length 12139 ft Runway width 197 ft
Runway elevation 617 ft Runway displaced threshold 0 ft Runway heading 75
Runway 25L Runway length 12139 ft Runway width 197 ft
Runway elevation 620 ft Runway displaced threshold 0 ft Runway heading 255

 AIRPORT FREQUENCIES
Type APP Name APP 1 Frequency 119.3 MHZ
Type APP Name APP 2 Frequency 123.7 MHZ
Type ATIS Name ATIS Frequency 125.125 MHZ
Type GND Name GND Frequency 119 MHZ
Type PMSV Name VOLMET Frequency 127.875 MHZ
Type RDR Name RADAR Frequency 118.1 MHZ
Type TWR Name TWR Frequency 120.7 MHZ

 AIRPORT NEAR NAVIGATION AIDS
Type NDB Name Sheremetyevo Frequency 338 KHZ
Type NDB Name Sheremetyevo Frequency 700 KHZ
Type NDB Name Sheremetyevo Frequency 770 KHZ
Type NDB Name Sheremetyevo Frequency 380 KHZ
Type NDB Name Sheremetyevo Frequency 338 KHZ
Type VOR-DME Name Sheremetyevo Frequency 114600 KHZ
Type NDB Name Sheremetyevo Frequency 700 KHZ
Type NDB Name Sheremetyevo Frequency 770 KHZ
Type NDB Name Sheremetyevo Frequency 380 KHZ



Version 5.0.0: Changelog

Impressum | Datenschutzerklärung

Virtual Airlines Manager